Daniel Oduber Quiros International Airport

Jump to: basic info | weather | frequencies | runways | comments

Related pages: nearby airports | nearby navaids | notams | map

Basic information (top)

Codes: LIR MRLB
Location: lon 10.593300, lat -85.544403, elev 270 ft / 82 m msl
Status: medium_airport
Scheduled airline service: yes
Links: Wikipedia Mobile

Weather (top)

Current conditions (rec'd 2014/04/25 02:00Z):

MRLB 250200Z 00000KT CAVOK 28/23 A2985

Airport forecast (rec'd 2014/04/24 00:21Z):

TAF MRLB 242300Z 2500/2524 23005KT 9999 SCT020 BKN110 TX36/2419Z TN24/2511Z PROB30 
      TEMPO 2505/2513 26005KT 8000 RA BKN018 
      BECMG 2514/2517 06005KT 9999 FEW030 SCT130 PROB30 2520/2524 RA BKN020

Frequencies (top)

Verify before use: may be inaccurate or out of date.

APP: 119.8 MHz (LIBERIA APP)
GND: 121.7 MHz (GND)
RDO: 126.8 MHz (COCO RDO)
TWR: 118.8 MHz (LIBERIA TWR)

Runways (top)

07/25: 9,022 x 148 ft (2,750 x 45 m) — paved — lighted

Latest comments (top)

Great Facility but: Make sure you either speak fluent ... [read]

Terminal building: Nice new facility opened in 2011 [read]

More... (top)

See also NOTAMs and nearby airports and navaids, or visit the Daniel Oduber Quiros International Airport page at the main OurAirports website..